createdAt,value
2023-02-19T00:01:28.345Z,1.50
2023-02-19T00:04:07.781Z,1.49
2023-02-19T00:06:40.484Z,1.48
2023-02-19T00:09:14.973Z,1.49
2023-02-19T00:11:48.783Z,1.48
2023-02-19T00:14:22.464Z,1.48
2023-02-19T00:16:55.188Z,1.49
2023-02-19T00:19:29.437Z,1.49
2023-02-19T00:22:01.929Z,1.48
2023-02-19T00:24:34.800Z,1.46
2023-02-19T00:27:08.013Z,1.45
2023-02-19T00:29:40.809Z,1.46
2023-02-19T00:32:14.909Z,1.46
2023-02-19T00:34:47.618Z,1.46
2023-02-19T00:37:20.344Z,1.44
2023-02-19T00:39:52.927Z,1.44
2023-02-19T00:42:26.289Z,1.42
2023-02-19T00:44:58.919Z,1.43
2023-02-19T00:47:31.719Z,1.43
2023-02-19T00:50:05.597Z,1.43
2023-02-19T00:52:38.586Z,1.42
2023-02-19T00:55:11.430Z,1.40
2023-02-19T00:57:44.721Z,1.40
2023-02-19T01:00:17.689Z,1.40
2023-02-19T01:02:51.053Z,1.40
2023-02-19T01:05:24.287Z,1.40
2023-02-19T01:07:57.668Z,1.41
2023-02-19T01:10:30.440Z,1.40
2023-02-19T01:13:03.473Z,1.41
2023-02-19T01:15:36.640Z,1.42
2023-02-19T01:18:09.371Z,1.43
2023-02-19T01:20:43.796Z,1.43
2023-02-19T01:23:16.947Z,1.43
2023-02-19T01:25:49.621Z,1.41
2023-02-19T01:28:23.446Z,1.41
2023-02-19T01:30:56.255Z,1.39
2023-02-19T01:33:28.979Z,1.40
2023-02-19T01:36:03.584Z,1.40
2023-02-19T01:38:36.498Z,1.40
2023-02-19T01:41:11.576Z,1.40
2023-02-19T01:44:07.319Z,1.40
2023-02-19T01:46:44.596Z,1.39
2023-02-19T01:49:23.924Z,1.38
2023-02-19T01:52:09.216Z,1.37
2023-02-19T01:54:42.456Z,1.38
2023-02-19T01:57:18.087Z,1.37
2023-02-19T01:59:55.305Z,1.38
2023-02-19T02:02:28.651Z,1.38
2023-02-19T02:05:01.679Z,1.35
2023-02-19T02:07:52.269Z,1.35
2023-02-19T02:10:25.273Z,1.34
2023-02-19T02:12:59.133Z,1.35
2023-02-19T02:15:38.913Z,1.34
2023-02-19T02:18:18.020Z,1.34
2023-02-19T02:21:18.158Z,1.32
2023-02-19T02:24:02.893Z,1.32
2023-02-19T02:26:49.563Z,1.31
2023-02-19T02:29:43.277Z,1.30
2023-02-19T02:32:21.542Z,1.30
2023-02-19T02:34:59.561Z,1.28
2023-02-19T02:37:33.958Z,1.29
2023-02-19T02:40:07.460Z,1.30
2023-02-19T02:42:43.713Z,1.31
2023-02-19T02:45:35.869Z,1.34
2023-02-19T02:48:22.733Z,1.34
2023-02-19T02:51:04.419Z,1.32
2023-02-19T02:54:02.339Z,1.32
2023-02-19T02:56:36.766Z,1.32
2023-02-19T02:59:11.270Z,1.32
2023-02-19T03:02:07.558Z,1.32
2023-02-19T03:05:16.824Z,1.35
2023-02-19T03:07:59.573Z,1.36
2023-02-19T03:10:37.787Z,1.37
2023-02-19T03:13:31.387Z,1.37
2023-02-19T03:16:25.778Z,1.36
2023-02-19T03:19:16.475Z,1.36
2023-02-19T03:21:55.276Z,1.35
2023-02-19T03:24:51.154Z,1.33
2023-02-19T03:27:25.143Z,1.32
2023-02-19T03:30:00.166Z,1.31
2023-02-19T03:32:40.305Z,1.31
2023-02-19T03:35:16.793Z,1.31
2023-02-19T03:38:05.383Z,1.32
2023-02-19T03:40:58.621Z,1.30
2023-02-19T03:43:40.623Z,1.32
2023-02-19T03:46:23.407Z,1.31
2023-02-19T03:48:59.557Z,1.32
2023-02-19T03:51:41.438Z,1.33
2023-02-19T03:54:50.527Z,1.35
2023-02-19T03:57:27.170Z,1.35
2023-02-19T04:00:24.509Z,1.35
2023-02-19T04:03:30.802Z,1.34
2023-02-19T04:06:05.526Z,1.35
2023-02-19T04:08:38.663Z,1.37
2023-02-19T04:11:11.817Z,1.38
2023-02-19T04:14:05.241Z,1.41
2023-02-19T04:16:40.140Z,1.41
2023-02-19T04:19:14.818Z,1.43
2023-02-19T04:21:47.723Z,1.44
2023-02-19T04:24:32.843Z,1.43
2023-02-19T04:27:05.836Z,1.45
2023-02-19T04:29:39.408Z,1.44
2023-02-19T04:32:13.310Z,1.45
2023-02-19T04:34:46.076Z,1.43
2023-02-19T04:37:18.886Z,1.41
2023-02-19T04:39:51.430Z,1.41
2023-02-19T04:42:25.007Z,1.40
2023-02-19T04:44:57.762Z,1.41
2023-02-19T04:47:30.317Z,1.43
2023-02-19T04:50:02.951Z,1.44
2023-02-19T04:52:36.528Z,1.46
2023-02-19T04:55:09.965Z,1.46
2023-02-19T04:57:42.552Z,1.48
2023-02-19T05:00:15.460Z,1.48
2023-02-19T05:02:48.137Z,1.48
2023-02-19T05:05:20.868Z,1.51
2023-02-19T05:07:54.497Z,1.51
2023-02-19T05:10:27.613Z,1.52
2023-02-19T05:13:00.366Z,1.55
2023-02-19T05:15:33.558Z,1.58
2023-02-19T05:18:06.345Z,1.59
2023-02-19T05:20:39.428Z,1.62
2023-02-19T05:23:12.436Z,1.63
2023-02-19T05:25:45.694Z,1.67
2023-02-19T05:28:18.979Z,1.71
2023-02-19T05:30:53.100Z,1.73
2023-02-19T05:33:27.049Z,1.74
2023-02-19T05:36:00.946Z,1.74
2023-02-19T05:38:33.955Z,1.72
2023-02-19T05:41:13.063Z,1.72
2023-02-19T05:43:47.572Z,1.72
2023-02-19T05:46:22.541Z,1.72
2023-02-19T05:48:55.687Z,1.71
2023-02-19T05:51:28.532Z,1.70
2023-02-19T05:54:01.091Z,1.68
2023-02-19T05:56:39.197Z,1.68
2023-02-19T05:59:20.385Z,1.69
2023-02-19T06:01:54.241Z,1.69
2023-02-19T06:04:27.351Z,1.71
2023-02-19T06:07:00.640Z,1.71
2023-02-19T06:09:33.712Z,1.72
2023-02-19T06:12:08.240Z,1.75
2023-02-19T06:14:41.131Z,1.77
2023-02-19T06:17:13.846Z,1.81
2023-02-19T06:19:47.468Z,1.84
2023-02-19T06:22:20.146Z,1.86
2023-02-19T06:24:53.425Z,1.89
2023-02-19T06:27:26.663Z,1.88
2023-02-19T06:30:00.124Z,1.88
2023-02-19T06:32:33.278Z,1.91
2023-02-19T06:35:06.377Z,1.97
2023-02-19T06:37:40.028Z,2.05
2023-02-19T06:40:12.809Z,2.16
2023-02-19T06:42:45.962Z,2.27
2023-02-19T06:45:18.766Z,2.39
2023-02-19T06:47:53.491Z,2.48
2023-02-19T06:50:26.143Z,2.57
2023-02-19T06:52:59.262Z,2.62
2023-02-19T06:55:32.067Z,2.70
2023-02-19T06:58:05.338Z,2.78
2023-02-19T07:00:39.899Z,2.83
2023-02-19T07:03:13.355Z,2.90
2023-02-19T07:05:46.767Z,2.99
2023-02-19T07:08:20.210Z,3.06
2023-02-19T07:10:58.067Z,3.14
2023-02-19T07:13:30.849Z,3.20
2023-02-19T07:16:08.015Z,3.29
2023-02-19T07:18:42.173Z,3.33
2023-02-19T07:21:16.479Z,3.36
2023-02-19T07:23:49.718Z,3.38
2023-02-19T07:26:23.184Z,3.43
2023-02-19T07:28:56.024Z,3.51
2023-02-19T07:31:29.346Z,3.58
2023-02-19T07:34:02.465Z,3.66
2023-02-19T07:36:35.115Z,3.66
2023-02-19T07:39:10.017Z,3.68
2023-02-19T07:41:42.821Z,3.74
2023-02-19T07:44:17.365Z,3.80
2023-02-19T07:46:50.107Z,3.88
2023-02-19T07:49:24.671Z,3.96
2023-02-19T07:51:57.504Z,4.03
2023-02-19T07:54:31.292Z,4.09
2023-02-19T07:57:04.051Z,4.14
2023-02-19T07:59:36.847Z,4.16
2023-02-19T08:02:38.386Z,4.16
2023-02-19T08:05:11.149Z,4.14
2023-02-19T08:07:43.818Z,4.11
2023-02-19T08:10:34.489Z,4.08
2023-02-19T08:13:20.533Z,4.07
2023-02-19T08:16:16.963Z,4.09
2023-02-19T08:18:40.802Z,4.15
2023-02-19T08:21:13.963Z,4.22
2023-02-19T08:23:47.949Z,4.24
2023-02-19T08:26:21.769Z,4.23
2023-02-19T08:28:54.789Z,4.25
2023-02-19T08:31:27.935Z,4.30
2023-02-19T08:34:00.839Z,4.32
2023-02-19T08:36:34.025Z,4.29
2023-02-19T08:39:07.012Z,4.37
2023-02-19T08:41:40.120Z,4.49
2023-02-19T08:44:12.854Z,4.57
2023-02-19T08:46:45.581Z,4.63
2023-02-19T08:49:18.433Z,4.71
2023-02-19T08:51:51.012Z,4.77
2023-02-19T08:54:23.753Z,4.84
2023-02-19T08:56:56.660Z,4.88
2023-02-19T08:59:31.101Z,4.96
2023-02-19T09:02:03.848Z,4.98
2023-02-19T09:04:38.003Z,4.99
2023-02-19T09:07:11.281Z,5.00
2023-02-19T09:09:45.038Z,5.00
2023-02-19T09:12:17.769Z,4.99
2023-02-19T09:14:52.065Z,4.93
2023-02-19T09:17:24.733Z,4.91
2023-02-19T09:19:57.339Z,4.89
2023-02-19T09:22:30.401Z,4.88
2023-02-19T09:25:03.449Z,4.89
2023-02-19T09:27:36.850Z,4.93
2023-02-19T09:30:10.368Z,4.91
2023-02-19T09:32:43.232Z,4.92
2023-02-19T09:35:16.298Z,4.92
2023-02-19T09:37:49.241Z,4.88
2023-02-19T09:40:22.650Z,4.87
2023-02-19T09:42:57.291Z,4.88
2023-02-19T09:45:30.505Z,4.89
2023-02-19T09:48:04.705Z,4.94
2023-02-19T09:50:44.827Z,5.01
2023-02-19T09:53:23.028Z,5.10
2023-02-19T09:55:55.566Z,5.13
2023-02-19T09:58:34.107Z,5.15
2023-02-19T10:01:08.095Z,5.14
2023-02-19T10:03:43.593Z,5.14
2023-02-19T10:06:27.147Z,5.12
2023-02-19T10:09:23.930Z,5.13
2023-02-19T10:11:57.498Z,5.12
2023-02-19T10:14:39.720Z,5.08
2023-02-19T10:17:15.536Z,5.04
2023-02-19T10:19:48.346Z,4.99
2023-02-19T10:22:21.214Z,5.01
2023-02-19T10:24:56.519Z,5.04
2023-02-19T10:27:31.377Z,5.09
2023-02-19T10:30:04.532Z,5.14
2023-02-19T10:32:37.903Z,5.15
2023-02-19T10:35:15.149Z,5.17
2023-02-19T10:37:51.681Z,5.20
2023-02-19T10:40:26.911Z,5.20
2023-02-19T10:43:02.714Z,5.16
2023-02-19T10:45:40.545Z,5.15
2023-02-19T10:48:34.808Z,5.11
2023-02-19T10:51:10.968Z,5.02
2023-02-19T10:53:51.779Z,4.97
2023-02-19T10:56:26.328Z,5.02
2023-02-19T10:59:20.519Z,5.08
2023-02-19T11:02:00.135Z,5.13
2023-02-19T11:04:35.786Z,5.27
2023-02-19T11:07:11.870Z,5.35
2023-02-19T11:09:48.627Z,5.39
2023-02-19T11:12:33.732Z,5.39
2023-02-19T11:15:33.797Z,5.41
2023-02-19T11:18:15.147Z,5.39
2023-02-19T11:20:55.092Z,5.35
2023-02-19T11:23:32.988Z,5.32
2023-02-19T11:26:07.529Z,5.31
2023-02-19T11:28:43.360Z,5.26
2023-02-19T11:31:27.989Z,5.21
2023-02-19T11:34:20.092Z,5.14
2023-02-19T11:37:10.774Z,5.02
2023-02-19T11:39:45.005Z,4.91
2023-02-19T11:42:29.193Z,4.84
2023-02-19T11:45:13.005Z,4.79
2023-02-19T11:48:16.932Z,4.74
2023-02-19T11:51:27.654Z,4.73
2023-02-19T11:54:15.428Z,4.71
2023-02-19T11:56:52.349Z,4.72
2023-02-19T11:59:43.439Z,4.75
2023-02-19T12:02:23.826Z,4.78
2023-02-19T12:05:05.780Z,4.83
2023-02-19T12:07:47.308Z,4.91
2023-02-19T12:10:35.182Z,5.00
2023-02-19T12:13:36.638Z,5.12
2023-02-19T12:16:28.663Z,5.25
2023-02-19T12:19:10.639Z,5.36
2023-02-19T12:21:52.265Z,5.45
2023-02-19T12:24:55.863Z,5.54
2023-02-19T12:27:57.145Z,5.60
2023-02-19T12:31:00.113Z,5.67
2023-02-19T12:33:50.523Z,5.69
2023-02-19T12:36:29.196Z,5.71
2023-02-19T12:39:22.938Z,5.69
2023-02-19T12:42:07.799Z,5.65
2023-02-19T12:44:47.056Z,5.60
2023-02-19T12:47:22.983Z,5.58
2023-02-19T12:50:01.549Z,5.57
2023-02-19T12:52:36.846Z,5.54
2023-02-19T12:55:23.754Z,5.50
2023-02-19T12:57:57.023Z,5.49
2023-02-19T13:00:32.915Z,5.46
2023-02-19T13:03:16.838Z,5.42
2023-02-19T13:06:25.650Z,5.36
2023-02-19T13:09:18.534Z,5.30
2023-02-19T13:11:55.345Z,5.24
2023-02-19T13:14:33.811Z,5.21
2023-02-19T13:17:09.736Z,5.18
2023-02-19T13:19:43.623Z,5.14
2023-02-19T13:22:49.820Z,5.11
2023-02-19T13:25:23.743Z,5.08
2023-02-19T13:27:59.965Z,5.03
2023-02-19T13:30:41.663Z,5.03
2023-02-19T13:33:35.825Z,4.96
2023-02-19T13:36:13.814Z,4.90
2023-02-19T13:38:47.639Z,4.87
2023-02-19T13:41:32.407Z,4.82
2023-02-19T13:44:08.379Z,4.82
2023-02-19T13:46:43.393Z,4.81
2023-02-19T13:49:34.993Z,4.80
2023-02-19T13:52:33.930Z,4.80
2023-02-19T13:55:49.904Z,4.78
2023-02-19T13:58:55.051Z,4.77
2023-02-19T14:01:53.469Z,4.71
2023-02-19T14:04:35.249Z,4.65
2023-02-19T14:07:11.247Z,4.64
2023-02-19T14:09:46.689Z,4.59
2023-02-19T14:12:21.114Z,4.52
2023-02-19T14:14:54.449Z,4.44
2023-02-19T14:17:45.924Z,4.37
2023-02-19T14:20:38.146Z,4.30
2023-02-19T14:23:19.091Z,4.23
2023-02-19T14:26:01.256Z,4.16
2023-02-19T14:28:42.556Z,4.12
2023-02-19T14:31:24.175Z,4.06
2023-02-19T14:33:59.645Z,4.01
2023-02-19T14:36:49.601Z,3.91
2023-02-19T14:39:27.256Z,3.83
2023-02-19T14:42:03.096Z,3.77
2023-02-19T14:44:54.407Z,3.71
2023-02-19T14:47:28.089Z,3.63
2023-02-19T14:50:04.182Z,3.60
2023-02-19T14:52:43.060Z,3.56
2023-02-19T14:55:28.452Z,3.49
2023-02-19T14:58:03.604Z,3.42
2023-02-19T15:00:38.518Z,3.37
2023-02-19T15:03:33.585Z,3.30
2023-02-19T15:06:17.653Z,3.28
2023-02-19T15:08:52.779Z,3.25
2023-02-19T15:11:27.467Z,3.24
2023-02-19T15:14:06.505Z,3.23
2023-02-19T15:16:39.312Z,3.19
2023-02-19T15:19:13.364Z,3.14
2023-02-19T15:21:48.078Z,3.13
2023-02-19T15:24:20.937Z,3.10
2023-02-19T15:26:54.417Z,3.05
2023-02-19T15:29:28.902Z,3.01
2023-02-19T15:32:02.751Z,2.99
2023-02-19T15:34:36.078Z,2.94
2023-02-19T15:37:10.239Z,2.88
2023-02-19T15:39:46.594Z,2.85
2023-02-19T15:42:25.827Z,2.82
2023-02-19T15:45:24.979Z,2.82
2023-02-19T15:48:00.812Z,2.80
2023-02-19T15:50:39.636Z,2.81
2023-02-19T15:53:19.972Z,2.80
2023-02-19T15:56:10.935Z,2.78
2023-02-19T15:59:07.216Z,2.76
2023-02-19T16:01:40.694Z,2.74
2023-02-19T16:04:18.760Z,2.67
2023-02-19T16:07:00.107Z,2.64
2023-02-19T16:09:39.719Z,2.59
2023-02-19T16:12:23.476Z,2.57
2023-02-19T16:14:56.701Z,2.52
2023-02-19T16:17:29.718Z,2.49
2023-02-19T16:20:03.495Z,2.46
2023-02-19T16:22:40.522Z,2.43
2023-02-19T16:25:31.565Z,2.42
2023-02-19T16:28:15.471Z,2.41
2023-02-19T16:30:50.184Z,2.39
2023-02-19T16:33:44.687Z,2.37
2023-02-19T16:36:40.427Z,2.35
2023-02-19T16:39:18.370Z,2.34
2023-02-19T16:41:54.405Z,2.34
2023-02-19T16:44:33.481Z,2.34
2023-02-19T16:47:08.083Z,2.34
2023-02-19T16:49:42.714Z,2.34
2023-02-19T16:52:17.242Z,2.33
2023-02-19T16:54:50.064Z,2.33
2023-02-19T16:57:22.919Z,2.30
2023-02-19T16:59:55.755Z,2.26
2023-02-19T17:02:28.463Z,2.23
2023-02-19T17:05:01.176Z,2.22
2023-02-19T17:07:34.244Z,2.19
2023-02-19T17:10:07.231Z,2.16
2023-02-19T17:12:41.562Z,2.14
2023-02-19T17:15:14.485Z,2.12
2023-02-19T17:17:47.218Z,2.10
2023-02-19T17:20:28.235Z,2.10
2023-02-19T17:23:00.978Z,2.10
2023-02-19T17:25:33.763Z,2.10
2023-02-19T17:28:07.225Z,2.10
2023-02-19T17:30:40.554Z,2.09
2023-02-19T17:33:13.476Z,2.09
2023-02-19T17:35:46.233Z,2.08
2023-02-19T17:38:19.748Z,2.06
2023-02-19T17:40:53.352Z,2.07
2023-02-19T17:43:26.487Z,2.04
2023-02-19T17:45:59.164Z,2.02
2023-02-19T17:48:32.215Z,2.00
2023-02-19T17:51:05.711Z,2.00
2023-02-19T17:53:38.743Z,2.00
2023-02-19T17:56:12.660Z,1.99
2023-02-19T17:58:45.495Z,2.01
2023-02-19T18:01:18.495Z,2.00
2023-02-19T18:03:51.267Z,1.99
2023-02-19T18:06:23.905Z,2.01
2023-02-19T18:08:56.884Z,1.98
2023-02-19T18:11:29.674Z,1.97
2023-02-19T18:14:03.001Z,1.97
2023-02-19T18:16:35.696Z,1.95
2023-02-19T18:19:08.940Z,1.96
2023-02-19T18:21:41.977Z,1.96
2023-02-19T18:24:14.915Z,1.97
2023-02-19T18:26:47.737Z,1.98
2023-02-19T18:29:22.109Z,1.98
2023-02-19T18:31:54.863Z,1.97
2023-02-19T18:34:28.348Z,1.97
2023-02-19T18:37:01.200Z,1.96
2023-02-19T18:39:34.614Z,1.96
2023-02-19T18:42:08.205Z,1.95
2023-02-19T18:44:41.728Z,1.95
2023-02-19T18:47:14.532Z,1.94
2023-02-19T18:49:53.134Z,1.92
2023-02-19T18:52:27.111Z,1.90
2023-02-19T18:55:00.745Z,1.90
2023-02-19T18:57:33.950Z,1.91
2023-02-19T19:00:08.373Z,1.92
2023-02-19T19:02:49.214Z,1.92
2023-02-19T19:05:18.340Z,1.92
2023-02-19T19:07:54.257Z,1.93
2023-02-19T19:10:27.897Z,1.93
2023-02-19T19:13:02.117Z,1.91
2023-02-19T19:15:35.294Z,1.91
2023-02-19T19:18:09.464Z,1.91
2023-02-19T19:20:42.146Z,1.92
2023-02-19T19:23:14.844Z,1.94
2023-02-19T19:25:47.680Z,1.94
2023-02-19T19:28:20.385Z,1.93
2023-02-19T19:30:53.357Z,1.93
2023-02-19T19:33:28.136Z,1.94
2023-02-19T19:36:01.122Z,1.95
2023-02-19T19:38:35.069Z,1.96
2023-02-19T19:41:08.281Z,1.96
2023-02-19T19:43:41.718Z,1.98
2023-02-19T19:46:16.448Z,1.99
2023-02-19T19:48:50.220Z,1.99
2023-02-19T19:51:23.474Z,1.99
2023-02-19T19:53:56.161Z,2.02
2023-02-19T19:56:29.140Z,2.02
2023-02-19T19:59:01.853Z,2.04
2023-02-19T20:01:34.768Z,2.09
2023-02-19T20:04:07.825Z,2.11
2023-02-19T20:06:40.689Z,2.13
2023-02-19T20:09:14.844Z,2.13
2023-02-19T20:11:49.371Z,2.11
2023-02-19T20:14:23.636Z,2.09
2023-02-19T20:16:56.650Z,2.07
2023-02-19T20:19:29.498Z,2.07
2023-02-19T20:22:02.143Z,2.04
2023-02-19T20:24:34.812Z,2.03
2023-02-19T20:27:07.556Z,2.01
2023-02-19T20:29:40.932Z,2.01
2023-02-19T20:32:14.511Z,1.98
2023-02-19T20:34:48.198Z,1.98
2023-02-19T20:37:21.429Z,1.97
2023-02-19T20:39:54.132Z,1.97
2023-02-19T20:42:27.401Z,1.97
2023-02-19T20:45:00.300Z,1.95
2023-02-19T20:47:33.428Z,1.95
2023-02-19T20:50:08.368Z,1.95
2023-02-19T20:52:42.129Z,1.93
2023-02-19T20:55:14.820Z,1.95
2023-02-19T20:57:47.684Z,1.95
2023-02-19T21:00:21.832Z,1.95
2023-02-19T21:02:55.122Z,1.94
2023-02-19T21:05:27.850Z,1.93
2023-02-19T21:08:00.684Z,1.95
2023-02-19T21:10:34.712Z,1.93
2023-02-19T21:13:09.195Z,1.93
2023-02-19T21:15:41.857Z,1.91
2023-02-19T21:18:14.652Z,1.90
2023-02-19T21:20:47.411Z,1.90
2023-02-19T21:23:20.421Z,1.89
2023-02-19T21:25:54.623Z,1.86
2023-02-19T21:28:27.417Z,1.83
2023-02-19T21:31:00.766Z,1.80
2023-02-19T21:33:33.695Z,1.81
2023-02-19T21:36:07.629Z,1.81
2023-02-19T21:38:40.365Z,1.80
2023-02-19T21:41:13.079Z,1.79
2023-02-19T21:43:46.727Z,1.77
2023-02-19T21:46:19.877Z,1.73
2023-02-19T21:48:53.364Z,1.71
2023-02-19T21:51:31.883Z,1.65
2023-02-19T21:54:05.404Z,1.63
2023-02-19T21:56:38.252Z,1.61
2023-02-19T21:59:11.261Z,1.58
2023-02-19T22:01:43.979Z,1.55
2023-02-19T22:04:18.272Z,1.54
2023-02-19T22:06:53.665Z,1.54
2023-02-19T22:09:26.974Z,1.54
2023-02-19T22:11:59.862Z,1.55
2023-02-19T22:14:32.832Z,1.57
2023-02-19T22:17:05.604Z,1.58
2023-02-19T22:19:38.249Z,1.57
2023-02-19T22:22:11.144Z,1.57
2023-02-19T22:24:44.692Z,1.58
2023-02-19T22:27:17.610Z,1.57
2023-02-19T22:29:50.668Z,1.57
2023-02-19T22:32:23.588Z,1.52
2023-02-19T22:34:56.559Z,1.46
2023-02-19T22:37:30.222Z,1.41
2023-02-19T22:40:02.865Z,1.39
2023-02-19T22:42:36.468Z,1.33
2023-02-19T22:45:11.304Z,1.29
2023-02-19T22:47:47.209Z,1.25
2023-02-19T22:50:22.689Z,1.22
2023-02-19T22:52:56.462Z,1.20
2023-02-19T22:55:29.432Z,1.19
2023-02-19T22:58:02.681Z,1.17
2023-02-19T23:00:36.402Z,1.13
2023-02-19T23:03:09.693Z,1.09
2023-02-19T23:05:43.158Z,1.06
2023-02-19T23:08:16.455Z,1.05
2023-02-19T23:10:50.403Z,1.03
2023-02-19T23:13:24.071Z,1.00
2023-02-19T23:15:57.469Z,1.01
2023-02-19T23:18:30.173Z,1.03
2023-02-19T23:21:03.555Z,1.07
2023-02-19T23:23:36.370Z,1.10
2023-02-19T23:26:09.296Z,1.10
2023-02-19T23:28:43.523Z,1.11
2023-02-19T23:31:17.015Z,1.12
2023-02-19T23:33:49.734Z,1.13
2023-02-19T23:36:24.179Z,1.14
2023-02-19T23:38:56.882Z,1.19
2023-02-19T23:41:29.546Z,1.21
2023-02-19T23:44:02.254Z,1.23
2023-02-19T23:46:35.188Z,1.26
2023-02-19T23:49:08.434Z,1.26
2023-02-19T23:51:41.390Z,1.29
2023-02-19T23:54:14.165Z,1.31
2023-02-19T23:56:46.948Z,1.34
2023-02-19T23:59:19.937Z,1.34
